sensor_id;sensor_type;location;lat;lon;timestamp;temperature;humidity
18934;DHT22;9599;53.706;10.384;2023-05-10T00:00:30;14.10;99.90
18934;DHT22;9599;53.706;10.384;2023-05-10T00:02:58;14.10;99.90
18934;DHT22;9599;53.706;10.384;2023-05-10T00:05:28;14.10;99.90
18934;DHT22;9599;53.706;10.384;2023-05-10T00:07:56;14.10;99.90
18934;DHT22;9599;53.706;10.384;2023-05-10T00:10:24;14.10;99.90
18934;DHT22;9599;53.706;10.384;2023-05-10T00:12:53;14.00;99.90
18934;DHT22;9599;53.706;10.384;2023-05-10T00:15:21;14.00;99.90
18934;DHT22;9599;53.706;10.384;2023-05-10T00:17:49;14.00;99.90
18934;DHT22;9599;53.706;10.384;2023-05-10T00:20:17;14.00;99.90
18934;DHT22;9599;53.706;10.384;2023-05-10T00:22:46;14.00;99.90
18934;DHT22;9599;53.706;10.384;2023-05-10T00:25:14;13.90;99.90
18934;DHT22;9599;53.706;10.384;2023-05-10T00:27:42;13.90;99.90
18934;DHT22;9599;53.706;10.384;2023-05-10T00:30:11;13.90;99.90
18934;DHT22;9599;53.706;10.384;2023-05-10T00:32:39;13.80;99.90
18934;DHT22;9599;53.706;10.384;2023-05-10T00:35:08;13.80;99.90
18934;DHT22;9599;53.706;10.384;2023-05-10T00:37:36;13.80;99.90
18934;DHT22;9599;53.706;10.384;2023-05-10T00:40:06;13.80;99.90
18934;DHT22;9599;53.706;10.384;2023-05-10T00:42:34;13.70;99.90
18934;DHT22;9599;53.706;10.384;2023-05-10T00:45:03;13.70;99.90
18934;DHT22;9599;53.706;10.384;2023-05-10T00:47:31;13.70;99.90
18934;DHT22;9599;53.706;10.384;2023-05-10T00:50:00;13.70;99.90
18934;DHT22;9599;53.706;10.384;2023-05-10T00:52:28;13.70;99.90
18934;DHT22;9599;53.706;10.384;2023-05-10T00:54:58;13.70;99.90
18934;DHT22;9599;53.706;10.384;2023-05-10T00:57:27;13.70;99.90
18934;DHT22;9599;53.706;10.384;2023-05-10T00:59:55;13.60;99.90
18934;DHT22;9599;53.706;10.384;2023-05-10T01:02:24;13.60;99.90
18934;DHT22;9599;53.706;10.384;2023-05-10T01:04:52;13.60;99.90
18934;DHT22;9599;53.706;10.384;2023-05-10T01:07:21;13.60;99.90
18934;DHT22;9599;53.706;10.384;2023-05-10T01:09:49;13.50;99.90
18934;DHT22;9599;53.706;10.384;2023-05-10T01:12:17;13.60;99.90
18934;DHT22;9599;53.706;10.384;2023-05-10T01:14:46;13.50;99.90
18934;DHT22;9599;53.706;10.384;2023-05-10T01:17:15;13.50;99.90
18934;DHT22;9599;53.706;10.384;2023-05-10T01:19:43;13.50;99.90
18934;DHT22;9599;53.706;10.384;2023-05-10T01:22:25;13.40;99.90
18934;DHT22;9599;53.706;10.384;2023-05-10T01:25:21;13.40;99.90
18934;DHT22;9599;53.706;10.384;2023-05-10T01:28:14;13.40;99.90
18934;DHT22;9599;53.706;10.384;2023-05-10T01:31:06;13.40;99.90
18934;DHT22;9599;53.706;10.384;2023-05-10T01:33:41;13.30;99.90
18934;DHT22;9599;53.706;10.384;2023-05-10T01:36:18;13.30;99.90
18934;DHT22;9599;53.706;10.384;2023-05-10T01:38:57;13.30;99.90
18934;DHT22;9599;53.706;10.384;2023-05-10T01:41:33;13.30;99.90
18934;DHT22;9599;53.706;10.384;2023-05-10T01:44:11;13.30;99.90
18934;DHT22;9599;53.706;10.384;2023-05-10T01:46:42;13.20;99.90
18934;DHT22;9599;53.706;10.384;2023-05-10T01:49:15;13.20;99.90
18934;DHT22;9599;53.706;10.384;2023-05-10T01:51:51;13.20;99.90
18934;DHT22;9599;53.706;10.384;2023-05-10T01:54:22;13.20;99.90
18934;DHT22;9599;53.706;10.384;2023-05-10T01:56:56;13.20;99.90
18934;DHT22;9599;53.706;10.384;2023-05-10T01:59:29;13.10;99.90
18934;DHT22;9599;53.706;10.384;2023-05-10T02:01:59;13.10;99.90
18934;DHT22;9599;53.706;10.384;2023-05-10T02:04:30;13.00;99.90
18934;DHT22;9599;53.706;10.384;2023-05-10T02:06:59;13.00;99.90
18934;DHT22;9599;53.706;10.384;2023-05-10T02:09:28;13.00;99.90
18934;DHT22;9599;53.706;10.384;2023-05-10T02:11:59;13.00;99.90
18934;DHT22;9599;53.706;10.384;2023-05-10T02:14:27;13.00;99.90
18934;DHT22;9599;53.706;10.384;2023-05-10T02:16:57;13.00;99.90
18934;DHT22;9599;53.706;10.384;2023-05-10T02:19:28;12.90;99.90
18934;DHT22;9599;53.706;10.384;2023-05-10T02:21:59;12.90;99.90
18934;DHT22;9599;53.706;10.384;2023-05-10T02:24:28;12.90;99.90
18934;DHT22;9599;53.706;10.384;2023-05-10T02:27:00;12.90;99.90
18934;DHT22;9599;53.706;10.384;2023-05-10T02:29:31;12.80;99.90
18934;DHT22;9599;53.706;10.384;2023-05-10T02:32:00;12.80;99.90
18934;DHT22;9599;53.706;10.384;2023-05-10T02:34:30;12.80;99.90
18934;DHT22;9599;53.706;10.384;2023-05-10T02:37:02;12.80;99.90
18934;DHT22;9599;53.706;10.384;2023-05-10T02:39:32;12.70;99.90
18934;DHT22;9599;53.706;10.384;2023-05-10T02:42:01;12.70;99.90
18934;DHT22;9599;53.706;10.384;2023-05-10T02:44:30;12.70;99.90
18934;DHT22;9599;53.706;10.384;2023-05-10T02:46:59;12.60;99.90
18934;DHT22;9599;53.706;10.384;2023-05-10T02:49:28;12.60;99.90
18934;DHT22;9599;53.706;10.384;2023-05-10T02:52:00;12.60;99.90
18934;DHT22;9599;53.706;10.384;2023-05-10T02:54:31;12.60;99.90
18934;DHT22;9599;53.706;10.384;2023-05-10T02:57:04;12.60;99.90
18934;DHT22;9599;53.706;10.384;2023-05-10T02:59:33;12.60;99.90
18934;DHT22;9599;53.706;10.384;2023-05-10T03:02:02;12.60;99.90
18934;DHT22;9599;53.706;10.384;2023-05-10T03:04:31;12.60;99.90
18934;DHT22;9599;53.706;10.384;2023-05-10T03:07:00;12.60;99.90
18934;DHT22;9599;53.706;10.384;2023-05-10T03:09:29;12.50;99.90
18934;DHT22;9599;53.706;10.384;2023-05-10T03:12:02;12.50;99.90
18934;DHT22;9599;53.706;10.384;2023-05-10T03:14:46;12.50;99.90
18934;DHT22;9599;53.706;10.384;2023-05-10T03:17:23;12.50;99.90
18934;DHT22;9599;53.706;10.384;2023-05-10T03:19:55;12.50;99.90
18934;DHT22;9599;53.706;10.384;2023-05-10T03:22:31;12.50;99.90
18934;DHT22;9599;53.706;10.384;2023-05-10T03:25:01;12.50;99.90
18934;DHT22;9599;53.706;10.384;2023-05-10T03:27:34;12.50;99.90
18934;DHT22;9599;53.706;10.384;2023-05-10T03:30:05;12.50;99.90
18934;DHT22;9599;53.706;10.384;2023-05-10T03:32:35;12.50;99.90
18934;DHT22;9599;53.706;10.384;2023-05-10T03:35:06;12.50;99.90
18934;DHT22;9599;53.706;10.384;2023-05-10T03:37:36;12.50;99.90
18934;DHT22;9599;53.706;10.384;2023-05-10T03:40:06;12.40;99.90
18934;DHT22;9599;53.706;10.384;2023-05-10T03:42:36;12.40;99.90
18934;DHT22;9599;53.706;10.384;2023-05-10T03:45:06;12.40;99.90
18934;DHT22;9599;53.706;10.384;2023-05-10T03:47:34;12.40;99.90
18934;DHT22;9599;53.706;10.384;2023-05-10T03:50:06;12.40;99.90
18934;DHT22;9599;53.706;10.384;2023-05-10T03:52:35;12.40;99.90
18934;DHT22;9599;53.706;10.384;2023-05-10T03:55:06;12.40;99.90
18934;DHT22;9599;53.706;10.384;2023-05-10T03:57:34;12.40;99.90
18934;DHT22;9599;53.706;10.384;2023-05-10T04:00:02;12.40;99.90
18934;DHT22;9599;53.706;10.384;2023-05-10T04:02:40;12.40;99.90
18934;DHT22;9599;53.706;10.384;2023-05-10T04:05:13;12.40;99.90
18934;DHT22;9599;53.706;10.384;2023-05-10T04:07:43;12.40;99.90
18934;DHT22;9599;53.706;10.384;2023-05-10T04:10:11;12.40;99.90
18934;DHT22;9599;53.706;10.384;2023-05-10T04:12:40;12.50;99.90
18934;DHT22;9599;53.706;10.384;2023-05-10T04:15:08;12.40;99.90
18934;DHT22;9599;53.706;10.384;2023-05-10T04:17:36;12.40;99.90
18934;DHT22;9599;53.706;10.384;2023-05-10T04:20:05;12.40;99.90
18934;DHT22;9599;53.706;10.384;2023-05-10T04:22:34;12.50;99.90
18934;DHT22;9599;53.706;10.384;2023-05-10T04:25:04;12.50;99.90
18934;DHT22;9599;53.706;10.384;2023-05-10T04:27:32;12.50;99.90
18934;DHT22;9599;53.706;10.384;2023-05-10T04:30:00;12.50;99.90
18934;DHT22;9599;53.706;10.384;2023-05-10T04:32:28;12.60;99.90
18934;DHT22;9599;53.706;10.384;2023-05-10T04:34:57;12.60;99.90
18934;DHT22;9599;53.706;10.384;2023-05-10T04:37:25;12.60;99.90
18934;DHT22;9599;53.706;10.384;2023-05-10T04:39:53;12.60;99.90
18934;DHT22;9599;53.706;10.384;2023-05-10T04:42:22;12.60;99.90
18934;DHT22;9599;53.706;10.384;2023-05-10T04:44:51;12.60;99.90
18934;DHT22;9599;53.706;10.384;2023-05-10T04:47:19;12.60;99.90
18934;DHT22;9599;53.706;10.384;2023-05-10T04:49:47;12.60;99.90
18934;DHT22;9599;53.706;10.384;2023-05-10T04:52:15;12.70;99.90
18934;DHT22;9599;53.706;10.384;2023-05-10T04:54:44;12.70;99.90
18934;DHT22;9599;53.706;10.384;2023-05-10T04:57:12;12.70;99.90
18934;DHT22;9599;53.706;10.384;2023-05-10T04:59:41;12.80;99.90
18934;DHT22;9599;53.706;10.384;2023-05-10T05:02:10;12.80;99.90
18934;DHT22;9599;53.706;10.384;2023-05-10T05:04:38;12.70;99.90
18934;DHT22;9599;53.706;10.384;2023-05-10T05:07:06;12.70;99.90
18934;DHT22;9599;53.706;10.384;2023-05-10T05:09:34;12.80;99.90
18934;DHT22;9599;53.706;10.384;2023-05-10T05:12:02;12.80;99.90
18934;DHT22;9599;53.706;10.384;2023-05-10T05:14:30;12.80;99.90
18934;DHT22;9599;53.706;10.384;2023-05-10T05:17:00;12.90;99.90
18934;DHT22;9599;53.706;10.384;2023-05-10T05:19:28;13.00;99.90
18934;DHT22;9599;53.706;10.384;2023-05-10T05:21:58;13.00;99.90
18934;DHT22;9599;53.706;10.384;2023-05-10T05:24:26;13.10;99.90
18934;DHT22;9599;53.706;10.384;2023-05-10T05:26:54;13.30;99.90
18934;DHT22;9599;53.706;10.384;2023-05-10T05:29:22;13.50;99.90
18934;DHT22;9599;53.706;10.384;2023-05-10T05:31:50;13.60;99.90
18934;DHT22;9599;53.706;10.384;2023-05-10T05:34:22;13.70;99.90
18934;DHT22;9599;53.706;10.384;2023-05-10T05:36:51;13.80;99.90
18934;DHT22;9599;53.706;10.384;2023-05-10T05:39:19;13.80;99.90
18934;DHT22;9599;53.706;10.384;2023-05-10T05:41:47;13.90;99.90
18934;DHT22;9599;53.706;10.384;2023-05-10T05:44:15;14.10;99.90
18934;DHT22;9599;53.706;10.384;2023-05-10T05:46:43;14.20;99.90
18934;DHT22;9599;53.706;10.384;2023-05-10T05:49:11;14.40;99.90
18934;DHT22;9599;53.706;10.384;2023-05-10T05:51:40;14.60;99.90
18934;DHT22;9599;53.706;10.384;2023-05-10T05:54:08;14.80;99.90
18934;DHT22;9599;53.706;10.384;2023-05-10T05:56:36;15.00;99.90
18934;DHT22;9599;53.706;10.384;2023-05-10T05:59:04;15.20;99.90
18934;DHT22;9599;53.706;10.384;2023-05-10T06:01:33;15.30;99.90
18934;DHT22;9599;53.706;10.384;2023-05-10T06:04:01;15.50;99.90
18934;DHT22;9599;53.706;10.384;2023-05-10T06:06:29;15.50;99.90
18934;DHT22;9599;53.706;10.384;2023-05-10T06:09:00;15.60;99.90
18934;DHT22;9599;53.706;10.384;2023-05-10T06:11:28;15.70;99.90
18934;DHT22;9599;53.706;10.384;2023-05-10T06:13:57;15.90;99.90
18934;DHT22;9599;53.706;10.384;2023-05-10T06:16:25;16.10;99.90
18934;DHT22;9599;53.706;10.384;2023-05-10T06:18:53;16.20;99.90
18934;DHT22;9599;53.706;10.384;2023-05-10T06:21:22;16.40;99.90
18934;DHT22;9599;53.706;10.384;2023-05-10T06:23:50;16.60;99.90
18934;DHT22;9599;53.706;10.384;2023-05-10T06:26:19;16.80;99.90
18934;DHT22;9599;53.706;10.384;2023-05-10T06:28:47;17.10;99.90
18934;DHT22;9599;53.706;10.384;2023-05-10T06:31:15;17.30;99.90
18934;DHT22;9599;53.706;10.384;2023-05-10T06:33:44;17.60;99.90
18934;DHT22;9599;53.706;10.384;2023-05-10T06:36:12;17.70;99.90
18934;DHT22;9599;53.706;10.384;2023-05-10T06:38:40;17.70;99.90
18934;DHT22;9599;53.706;10.384;2023-05-10T06:41:08;17.70;99.90
18934;DHT22;9599;53.706;10.384;2023-05-10T06:43:38;17.80;99.90
18934;DHT22;9599;53.706;10.384;2023-05-10T06:46:08;17.90;99.90
18934;DHT22;9599;53.706;10.384;2023-05-10T06:48:36;17.90;99.90
18934;DHT22;9599;53.706;10.384;2023-05-10T06:51:04;17.90;99.90
18934;DHT22;9599;53.706;10.384;2023-05-10T06:53:32;17.90;99.90
18934;DHT22;9599;53.706;10.384;2023-05-10T06:56:00;18.00;99.90
18934;DHT22;9599;53.706;10.384;2023-05-10T06:58:30;18.00;99.90
18934;DHT22;9599;53.706;10.384;2023-05-10T07:01:03;18.00;99.90
18934;DHT22;9599;53.706;10.384;2023-05-10T07:03:32;18.00;99.90
18934;DHT22;9599;53.706;10.384;2023-05-10T07:06:00;17.80;99.90
18934;DHT22;9599;53.706;10.384;2023-05-10T07:08:30;17.60;99.90
18934;DHT22;9599;53.706;10.384;2023-05-10T07:11:02;17.60;99.90
18934;DHT22;9599;53.706;10.384;2023-05-10T07:13:30;17.60;99.90
18934;DHT22;9599;53.706;10.384;2023-05-10T07:15:59;17.60;99.90
18934;DHT22;9599;53.706;10.384;2023-05-10T07:18:30;17.50;99.90
18934;DHT22;9599;53.706;10.384;2023-05-10T07:20:58;17.70;99.90
18934;DHT22;9599;53.706;10.384;2023-05-10T07:23:26;17.70;99.90
18934;DHT22;9599;53.706;10.384;2023-05-10T07:25:54;17.90;99.90
18934;DHT22;9599;53.706;10.384;2023-05-10T07:28:24;17.80;99.90
18934;DHT22;9599;53.706;10.384;2023-05-10T07:30:51;17.90;99.90
18934;DHT22;9599;53.706;10.384;2023-05-10T07:33:20;18.00;99.90
18934;DHT22;9599;53.706;10.384;2023-05-10T07:35:50;18.20;99.90
18934;DHT22;9599;53.706;10.384;2023-05-10T07:38:19;18.50;99.90
18934;DHT22;9599;53.706;10.384;2023-05-10T07:40:47;18.70;99.90
18934;DHT22;9599;53.706;10.384;2023-05-10T07:43:15;18.70;99.90
18934;DHT22;9599;53.706;10.384;2023-05-10T07:45:43;18.80;99.90
18934;DHT22;9599;53.706;10.384;2023-05-10T07:48:11;18.90;99.90
18934;DHT22;9599;53.706;10.384;2023-05-10T07:50:39;18.90;99.90
18934;DHT22;9599;53.706;10.384;2023-05-10T07:53:09;19.10;99.90
18934;DHT22;9599;53.706;10.384;2023-05-10T07:55:37;19.30;99.90
18934;DHT22;9599;53.706;10.384;2023-05-10T07:58:05;19.20;99.90
18934;DHT22;9599;53.706;10.384;2023-05-10T08:00:33;19.10;99.90
18934;DHT22;9599;53.706;10.384;2023-05-10T08:03:01;19.00;99.90
18934;DHT22;9599;53.706;10.384;2023-05-10T08:05:29;18.90;99.90
18934;DHT22;9599;53.706;10.384;2023-05-10T08:08:00;18.80;99.90
18934;DHT22;9599;53.706;10.384;2023-05-10T08:10:29;18.90;99.90
18934;DHT22;9599;53.706;10.384;2023-05-10T08:12:57;18.90;99.90
18934;DHT22;9599;53.706;10.384;2023-05-10T08:15:26;18.90;99.90
18934;DHT22;9599;53.706;10.384;2023-05-10T08:17:53;18.90;99.90
18934;DHT22;9599;53.706;10.384;2023-05-10T08:20:22;18.90;99.90
18934;DHT22;9599;53.706;10.384;2023-05-10T08:22:50;18.80;99.90
18934;DHT22;9599;53.706;10.384;2023-05-10T08:25:18;18.80;99.90
18934;DHT22;9599;53.706;10.384;2023-05-10T08:27:48;18.60;99.90
18934;DHT22;9599;53.706;10.384;2023-05-10T08:30:16;18.90;99.90
18934;DHT22;9599;53.706;10.384;2023-05-10T08:32:44;19.20;99.90
18934;DHT22;9599;53.706;10.384;2023-05-10T08:35:12;19.50;99.90
18934;DHT22;9599;53.706;10.384;2023-05-10T08:37:40;19.60;99.90
18934;DHT22;9599;53.706;10.384;2023-05-10T08:40:09;19.90;99.90
18934;DHT22;9599;53.706;10.384;2023-05-10T08:42:45;20.30;99.90
18934;DHT22;9599;53.706;10.384;2023-05-10T08:45:18;20.60;99.90
18934;DHT22;9599;53.706;10.384;2023-05-10T08:47:47;20.80;99.90
18934;DHT22;9599;53.706;10.384;2023-05-10T08:50:15;20.70;99.90
18934;DHT22;9599;53.706;10.384;2023-05-10T08:52:46;20.80;99.90
18934;DHT22;9599;53.706;10.384;2023-05-10T08:55:15;21.00;99.90
18934;DHT22;9599;53.706;10.384;2023-05-10T08:57:44;21.10;99.90
18934;DHT22;9599;53.706;10.384;2023-05-10T09:00:13;21.40;99.90
18934;DHT22;9599;53.706;10.384;2023-05-10T09:02:43;21.40;99.90
18934;DHT22;9599;53.706;10.384;2023-05-10T09:05:12;21.20;99.90
18934;DHT22;9599;53.706;10.384;2023-05-10T09:07:43;21.10;99.90
18934;DHT22;9599;53.706;10.384;2023-05-10T09:10:11;20.90;99.90
18934;DHT22;9599;53.706;10.384;2023-05-10T09:12:41;20.80;99.90
18934;DHT22;9599;53.706;10.384;2023-05-10T09:15:10;20.90;99.90
18934;DHT22;9599;53.706;10.384;2023-05-10T09:17:44;21.10;99.90
18934;DHT22;9599;53.706;10.384;2023-05-10T09:20:12;21.30;99.90
18934;DHT22;9599;53.706;10.384;2023-05-10T09:22:40;21.70;99.90
18934;DHT22;9599;53.706;10.384;2023-05-10T09:25:10;21.80;99.90
18934;DHT22;9599;53.706;10.384;2023-05-10T09:27:39;22.00;99.90
18934;DHT22;9599;53.706;10.384;2023-05-10T09:30:08;21.80;99.90
18934;DHT22;9599;53.706;10.384;2023-05-10T09:32:37;22.00;99.90
18934;DHT22;9599;53.706;10.384;2023-05-10T09:35:11;22.30;99.90
18934;DHT22;9599;53.706;10.384;2023-05-10T09:37:40;22.30;99.90
18934;DHT22;9599;53.706;10.384;2023-05-10T09:40:12;22.20;99.90
18934;DHT22;9599;53.706;10.384;2023-05-10T09:42:41;22.30;99.90
18934;DHT22;9599;53.706;10.384;2023-05-10T09:45:11;22.30;99.90
18934;DHT22;9599;53.706;10.384;2023-05-10T09:47:39;22.20;99.90
18934;DHT22;9599;53.706;10.384;2023-05-10T09:50:07;22.00;99.90
18934;DHT22;9599;53.706;10.384;2023-05-10T09:52:48;21.70;99.90
18934;DHT22;9599;53.706;10.384;2023-05-10T09:55:17;21.50;99.90
18934;DHT22;9599;53.706;10.384;2023-05-10T09:57:46;21.20;99.90
18934;DHT22;9599;53.706;10.384;2023-05-10T10:00:19;21.30;99.90
18934;DHT22;9599;53.706;10.384;2023-05-10T10:02:53;21.60;99.90
18934;DHT22;9599;53.706;10.384;2023-05-10T10:05:28;21.70;99.90
18934;DHT22;9599;53.706;10.384;2023-05-10T10:07:57;21.70;99.90
18934;DHT22;9599;53.706;10.384;2023-05-10T10:10:26;21.70;99.90
18934;DHT22;9599;53.706;10.384;2023-05-10T10:12:55;21.50;99.90
18934;DHT22;9599;53.706;10.384;2023-05-10T10:15:24;21.30;99.90
18934;DHT22;9599;53.706;10.384;2023-05-10T10:17:52;20.80;99.90
18934;DHT22;9599;53.706;10.384;2023-05-10T10:20:22;20.60;99.90
18934;DHT22;9599;53.706;10.384;2023-05-10T10:22:50;20.40;99.90
18934;DHT22;9599;53.706;10.384;2023-05-10T10:25:21;20.30;99.90
18934;DHT22;9599;53.706;10.384;2023-05-10T10:27:59;20.50;99.90
18934;DHT22;9599;53.706;10.384;2023-05-10T10:30:41;20.70;99.90
18934;DHT22;9599;53.706;10.384;2023-05-10T10:33:30;20.80;99.90
18934;DHT22;9599;53.706;10.384;2023-05-10T10:36:00;20.50;99.90
18934;DHT22;9599;53.706;10.384;2023-05-10T10:38:36;20.20;99.90
18934;DHT22;9599;53.706;10.384;2023-05-10T10:41:10;20.10;99.90
18934;DHT22;9599;53.706;10.384;2023-05-10T10:43:38;19.90;99.90
18934;DHT22;9599;53.706;10.384;2023-05-10T10:46:13;19.60;99.90
18934;DHT22;9599;53.706;10.384;2023-05-10T10:48:47;19.30;99.90
18934;DHT22;9599;53.706;10.384;2023-05-10T10:51:17;19.20;99.90
18934;DHT22;9599;53.706;10.384;2023-05-10T10:53:47;19.00;99.90
18934;DHT22;9599;53.706;10.384;2023-05-10T10:56:22;18.90;99.90
18934;DHT22;9599;53.706;10.384;2023-05-10T10:58:51;18.80;99.90
18934;DHT22;9599;53.706;10.384;2023-05-10T11:01:20;18.90;99.90
18934;DHT22;9599;53.706;10.384;2023-05-10T11:04:18;18.80;99.90
18934;DHT22;9599;53.706;10.384;2023-05-10T11:06:47;18.70;99.90
18934;DHT22;9599;53.706;10.384;2023-05-10T11:09:15;18.70;99.90
18934;DHT22;9599;53.706;10.384;2023-05-10T11:11:54;18.60;99.90
18934;DHT22;9599;53.706;10.384;2023-05-10T11:14:23;18.50;99.90
18934;DHT22;9599;53.706;10.384;2023-05-10T11:16:51;18.20;99.90
18934;DHT22;9599;53.706;10.384;2023-05-10T11:19:19;18.10;99.90
18934;DHT22;9599;53.706;10.384;2023-05-10T11:21:49;17.90;99.90
18934;DHT22;9599;53.706;10.384;2023-05-10T11:24:19;18.00;99.90
18934;DHT22;9599;53.706;10.384;2023-05-10T11:26:50;17.70;99.90
18934;DHT22;9599;53.706;10.384;2023-05-10T11:29:19;17.50;99.90
18934;DHT22;9599;53.706;10.384;2023-05-10T11:31:49;17.20;99.90
18934;DHT22;9599;53.706;10.384;2023-05-10T11:34:24;17.10;99.90
18934;DHT22;9599;53.706;10.384;2023-05-10T11:36:53;17.00;99.90
18934;DHT22;9599;53.706;10.384;2023-05-10T11:39:26;16.70;99.90
18934;DHT22;9599;53.706;10.384;2023-05-10T11:41:54;16.50;99.90
18934;DHT22;9599;53.706;10.384;2023-05-10T11:44:28;16.20;99.90
18934;DHT22;9599;53.706;10.384;2023-05-10T11:46:58;16.10;99.90
18934;DHT22;9599;53.706;10.384;2023-05-10T11:49:26;16.00;99.90
18934;DHT22;9599;53.706;10.384;2023-05-10T11:52:03;16.00;99.90
18934;DHT22;9599;53.706;10.384;2023-05-10T11:54:32;16.00;99.90
18934;DHT22;9599;53.706;10.384;2023-05-10T11:57:01;15.90;99.90
18934;DHT22;9599;53.706;10.384;2023-05-10T11:59:30;16.00;99.90
18934;DHT22;9599;53.706;10.384;2023-05-10T12:01:59;15.90;99.90
18934;DHT22;9599;53.706;10.384;2023-05-10T12:04:27;16.00;99.90
18934;DHT22;9599;53.706;10.384;2023-05-10T12:06:57;15.90;99.90
18934;DHT22;9599;53.706;10.384;2023-05-10T12:09:25;15.80;99.90
18934;DHT22;9599;53.706;10.384;2023-05-10T12:12:09;16.00;99.90
18934;DHT22;9599;53.706;10.384;2023-05-10T12:14:38;15.90;99.90
18934;DHT22;9599;53.706;10.384;2023-05-10T12:17:11;15.90;99.90
18934;DHT22;9599;53.706;10.384;2023-05-10T12:19:39;16.10;99.90
18934;DHT22;9599;53.706;10.384;2023-05-10T12:22:07;16.20;99.90
18934;DHT22;9599;53.706;10.384;2023-05-10T12:24:36;16.50;99.90
18934;DHT22;9599;53.706;10.384;2023-05-10T12:27:05;16.50;99.90
18934;DHT22;9599;53.706;10.384;2023-05-10T12:29:54;16.40;99.90
18934;DHT22;9599;53.706;10.384;2023-05-10T12:32:37;16.40;99.90
18934;DHT22;9599;53.706;10.384;2023-05-10T12:35:06;16.50;99.90
18934;DHT22;9599;53.706;10.384;2023-05-10T12:37:34;16.70;99.90
18934;DHT22;9599;53.706;10.384;2023-05-10T12:40:07;17.00;99.90
18934;DHT22;9599;53.706;10.384;2023-05-10T12:42:35;17.20;99.90
18934;DHT22;9599;53.706;10.384;2023-05-10T12:45:06;17.40;99.90
18934;DHT22;9599;53.706;10.384;2023-05-10T12:47:35;17.60;99.90
18934;DHT22;9599;53.706;10.384;2023-05-10T12:50:04;17.60;99.90
18934;DHT22;9599;53.706;10.384;2023-05-10T12:52:32;17.80;99.90
18934;DHT22;9599;53.706;10.384;2023-05-10T12:55:00;17.90;99.90
18934;DHT22;9599;53.706;10.384;2023-05-10T12:57:29;17.90;99.90
18934;DHT22;9599;53.706;10.384;2023-05-10T12:59:57;17.80;99.90
18934;DHT22;9599;53.706;10.384;2023-05-10T13:02:26;17.60;99.90
18934;DHT22;9599;53.706;10.384;2023-05-10T13:04:55;17.60;99.90
18934;DHT22;9599;53.706;10.384;2023-05-10T13:07:23;17.70;99.90
18934;DHT22;9599;53.706;10.384;2023-05-10T13:09:51;17.60;99.90
18934;DHT22;9599;53.706;10.384;2023-05-10T13:12:18;17.50;99.90
18934;DHT22;9599;53.706;10.384;2023-05-10T13:14:48;17.50;99.90
18934;DHT22;9599;53.706;10.384;2023-05-10T13:17:16;17.40;99.90
18934;DHT22;9599;53.706;10.384;2023-05-10T13:19:45;17.50;99.90
18934;DHT22;9599;53.706;10.384;2023-05-10T13:22:13;17.50;99.90
18934;DHT22;9599;53.706;10.384;2023-05-10T13:24:48;17.40;99.90
18934;DHT22;9599;53.706;10.384;2023-05-10T13:27:16;17.40;99.90
18934;DHT22;9599;53.706;10.384;2023-05-10T13:29:44;17.50;99.90
18934;DHT22;9599;53.706;10.384;2023-05-10T13:32:14;17.50;99.90
18934;DHT22;9599;53.706;10.384;2023-05-10T13:34:42;17.50;99.90
18934;DHT22;9599;53.706;10.384;2023-05-10T13:37:13;17.40;99.90
18934;DHT22;9599;53.706;10.384;2023-05-10T13:39:41;17.20;99.90
18934;DHT22;9599;53.706;10.384;2023-05-10T13:42:09;17.30;99.90
18934;DHT22;9599;53.706;10.384;2023-05-10T13:44:37;17.40;99.90
18934;DHT22;9599;53.706;10.384;2023-05-10T13:47:05;17.30;99.90
18934;DHT22;9599;53.706;10.384;2023-05-10T13:49:33;17.30;99.90
18934;DHT22;9599;53.706;10.384;2023-05-10T13:52:01;17.30;99.90
18934;DHT22;9599;53.706;10.384;2023-05-10T13:54:34;17.20;99.90
18934;DHT22;9599;53.706;10.384;2023-05-10T13:57:02;17.40;99.90
18934;DHT22;9599;53.706;10.384;2023-05-10T13:59:31;17.40;99.90
18934;DHT22;9599;53.706;10.384;2023-05-10T14:01:59;17.40;99.90
18934;DHT22;9599;53.706;10.384;2023-05-10T14:04:29;17.50;99.90
18934;DHT22;9599;53.706;10.384;2023-05-10T14:06:57;17.70;99.90
18934;DHT22;9599;53.706;10.384;2023-05-10T14:09:25;17.90;99.90
18934;DHT22;9599;53.706;10.384;2023-05-10T14:11:54;18.10;99.90
18934;DHT22;9599;53.706;10.384;2023-05-10T14:14:23;18.30;99.90
18934;DHT22;9599;53.706;10.384;2023-05-10T14:16:51;18.40;99.90
18934;DHT22;9599;53.706;10.384;2023-05-10T14:19:19;18.40;99.90
18934;DHT22;9599;53.706;10.384;2023-05-10T14:21:47;18.40;99.90
18934;DHT22;9599;53.706;10.384;2023-05-10T14:24:15;18.50;99.90
18934;DHT22;9599;53.706;10.384;2023-05-10T14:26:43;18.40;99.90
18934;DHT22;9599;53.706;10.384;2023-05-10T14:29:12;18.20;99.90
18934;DHT22;9599;53.706;10.384;2023-05-10T14:31:40;18.20;99.90
18934;DHT22;9599;53.706;10.384;2023-05-10T14:34:08;18.40;99.90
18934;DHT22;9599;53.706;10.384;2023-05-10T14:36:36;18.60;99.90
18934;DHT22;9599;53.706;10.384;2023-05-10T14:39:04;18.90;99.90
18934;DHT22;9599;53.706;10.384;2023-05-10T14:41:33;18.90;99.90
18934;DHT22;9599;53.706;10.384;2023-05-10T14:44:01;19.10;99.90
18934;DHT22;9599;53.706;10.384;2023-05-10T14:46:31;19.10;99.90
18934;DHT22;9599;53.706;10.384;2023-05-10T14:49:00;19.00;99.90
18934;DHT22;9599;53.706;10.384;2023-05-10T14:51:28;18.90;99.90
18934;DHT22;9599;53.706;10.384;2023-05-10T14:53:56;18.90;99.90
18934;DHT22;9599;53.706;10.384;2023-05-10T14:56:24;19.00;99.90
18934;DHT22;9599;53.706;10.384;2023-05-10T14:58:52;19.00;99.90
18934;DHT22;9599;53.706;10.384;2023-05-10T15:01:20;19.00;99.90
18934;DHT22;9599;53.706;10.384;2023-05-10T15:03:50;19.20;99.90
18934;DHT22;9599;53.706;10.384;2023-05-10T15:06:23;19.30;99.90
18934;DHT22;9599;53.706;10.384;2023-05-10T15:08:52;19.30;99.90
18934;DHT22;9599;53.706;10.384;2023-05-10T15:11:20;19.10;99.90
18934;DHT22;9599;53.706;10.384;2023-05-10T15:13:48;19.10;99.90
18934;DHT22;9599;53.706;10.384;2023-05-10T15:16:16;19.10;99.90
18934;DHT22;9599;53.706;10.384;2023-05-10T15:18:44;19.10;99.90
18934;DHT22;9599;53.706;10.384;2023-05-10T15:21:13;19.10;99.90
18934;DHT22;9599;53.706;10.384;2023-05-10T15:23:41;19.10;99.90
18934;DHT22;9599;53.706;10.384;2023-05-10T15:26:09;19.10;99.90
18934;DHT22;9599;53.706;10.384;2023-05-10T15:28:38;19.20;99.90
18934;DHT22;9599;53.706;10.384;2023-05-10T15:31:06;19.10;99.90
18934;DHT22;9599;53.706;10.384;2023-05-10T15:33:34;19.00;99.90
18934;DHT22;9599;53.706;10.384;2023-05-10T15:36:01;19.00;99.90
18934;DHT22;9599;53.706;10.384;2023-05-10T15:38:31;19.10;99.90
18934;DHT22;9599;53.706;10.384;2023-05-10T15:40:59;19.10;99.90
18934;DHT22;9599;53.706;10.384;2023-05-10T15:43:27;18.90;99.90
18934;DHT22;9599;53.706;10.384;2023-05-10T15:45:55;18.80;99.90